Time;durP1;ratioP1;P1;durP2;ratioP2;P2;SDS_P1;SDS_P2;PMS_P1;PMS_P2;Temp;Humidity;BMP_temperature;BMP_pressure;BME280_temperature;BME280_humidity;BME280_pressure;Samples;Min_cycle;Max_cycle;Signal;HPM_P1;HPM_P2
2024/01/21 00:00:41;;;;;;;10.43;8.17;;;;;;;;;;5021379;28;20239;-81
2024/01/21 00:03:09;;;;;;;8.83;7.03;;;;;;;;;;5004609;28;20233;-82
2024/01/21 00:05:36;;;;;;;10.47;7.10;;;;;;;;;;5013958;28;20294;-81
2024/01/21 00:08:06;;;;;;;7.87;6.53;;;;;;;;;;5029878;28;20202;-81
2024/01/21 00:10:34;;;;;;;10.57;7.33;;;;;;;;;;5014532;28;20218;-84
2024/01/21 00:13:01;;;;;;;9.83;7.30;;;;;;;;;;5028148;28;20249;-82
2024/01/21 00:15:29;;;;;;;9.13;6.53;;;;;;;;;;5010088;28;20219;-78
2024/01/21 00:17:57;;;;;;;12.23;6.70;;;;;;;;;;5026831;28;20210;-80
2024/01/21 00:20:30;;;;;;;8.03;6.33;;;;;;;;;;5025179;28;20202;-80
2024/01/21 00:22:59;;;;;;;9.37;6.97;;;;;;;;;;5007577;28;20247;-80
2024/01/21 00:25:27;;;;;;;12.13;8.00;;;;;;;;;;5003573;28;20225;-83
2024/01/21 00:27:54;;;;;;;11.20;7.70;;;;;;;;;;5006808;28;20300;-81
2024/01/21 00:30:21;;;;;;;12.03;8.63;;;;;;;;;;5000534;28;20418;-80
2024/01/21 00:32:49;;;;;;;11.40;8.47;;;;;;;;;;5022978;28;20245;-83
2024/01/21 00:35:16;;;;;;;12.80;9.10;;;;;;;;;;5021142;28;20289;-80
2024/01/21 00:37:43;;;;;;;11.90;7.90;;;;;;;;;;5025070;28;20213;-83
2024/01/21 00:40:11;;;;;;;12.67;8.90;;;;;;;;;;5024505;28;20284;-79
2024/01/21 00:42:38;;;;;;;16.93;9.60;;;;;;;;;;5022363;28;20254;-81
2024/01/21 00:45:06;;;;;;;12.93;9.47;;;;;;;;;;5025062;28;20315;-79
2024/01/21 00:47:33;;;;;;;13.50;9.17;;;;;;;;;;5020331;28;20929;-79
2024/01/21 00:50:03;;;;;;;15.57;9.07;;;;;;;;;;5028824;28;20203;-80
2024/01/21 00:52:30;;;;;;;17.90;11.47;;;;;;;;;;5022791;28;20500;-79
2024/01/21 00:54:57;;;;;;;18.40;10.97;;;;;;;;;;5011141;28;20232;-80
2024/01/21 00:57:25;;;;;;;15.13;10.93;;;;;;;;;;5024066;28;20648;-80
2024/01/21 00:59:52;;;;;;;16.77;10.23;;;;;;;;;;5029035;28;20241;-81
2024/01/21 01:02:19;;;;;;;17.07;10.37;;;;;;;;;;5024282;28;20218;-81
2024/01/21 01:04:48;;;;;;;15.93;10.97;;;;;;;;;;5022415;28;20214;-79
2024/01/21 01:07:16;;;;;;;15.03;9.77;;;;;;;;;;5026702;28;20226;-80
2024/01/21 01:09:43;;;;;;;18.47;11.50;;;;;;;;;;5025512;28;20664;-83
2024/01/21 01:12:10;;;;;;;18.53;11.53;;;;;;;;;;5032468;28;20316;-78
2024/01/21 01:14:41;;;;;;;17.27;11.40;;;;;;;;;;5019206;28;20246;-82
2024/01/21 01:17:08;;;;;;;20.60;12.93;;;;;;;;;;5009124;28;20684;-81
2024/01/21 01:19:35;;;;;;;18.80;12.80;;;;;;;;;;5022420;28;21010;-83
2024/01/21 01:22:03;;;;;;;18.30;12.17;;;;;;;;;;5024616;28;20289;-84
2024/01/21 01:24:30;;;;;;;20.23;13.20;;;;;;;;;;5027674;28;20237;-82
2024/01/21 01:26:57;;;;;;;17.00;12.47;;;;;;;;;;5029030;28;20619;-86
2024/01/21 01:29:25;;;;;;;14.97;11.57;;;;;;;;;;5045492;28;20179;-79
2024/01/21 01:31:52;;;;;;;14.50;11.07;;;;;;;;;;5030577;28;20195;-78
2024/01/21 01:34:19;;;;;;;16.53;11.90;;;;;;;;;;5047428;28;20237;-76
2024/01/21 01:36:46;;;;;;;16.67;12.13;;;;;;;;;;5054293;28;20198;-76
2024/01/21 01:39:13;;;;;;;17.43;11.60;;;;;;;;;;5044942;28;20257;-76
2024/01/21 01:41:41;;;;;;;17.97;11.80;;;;;;;;;;5044936;28;20188;-80
2024/01/21 01:44:08;;;;;;;16.40;11.80;;;;;;;;;;5048325;28;20461;-79
2024/01/21 01:46:36;;;;;;;18.50;11.67;;;;;;;;;;5019955;28;20695;-80
2024/01/21 01:49:05;;;;;;;16.60;11.40;;;;;;;;;;5027227;28;20211;-80
2024/01/21 01:51:33;;;;;;;15.53;11.27;;;;;;;;;;5026524;28;20230;-81
2024/01/21 01:54:00;;;;;;;16.07;11.63;;;;;;;;;;5006692;28;20230;-83
2024/01/21 01:56:27;;;;;;;16.07;11.97;;;;;;;;;;5019471;28;20211;-81
2024/01/21 01:58:55;;;;;;;16.33;11.90;;;;;;;;;;5028766;28;20764;-82
2024/01/21 02:01:22;;;;;;;15.53;12.00;;;;;;;;;;5018212;28;20211;-79
2024/01/21 02:03:50;;;;;;;15.83;11.57;;;;;;;;;;5007065;28;20584;-79
2024/01/21 02:06:17;;;;;;;18.83;11.23;;;;;;;;;;5023473;28;20199;-82
2024/01/21 02:08:44;;;;;;;15.20;11.80;;;;;;;;;;5032466;28;20625;-82
2024/01/21 02:11:12;;;;;;;18.97;12.53;;;;;;;;;;5027666;28;20296;-80
2024/01/21 02:13:39;;;;;;;20.10;13.30;;;;;;;;;;5007150;28;20313;-81
2024/01/21 02:16:06;;;;;;;17.23;12.60;;;;;;;;;;4999617;28;20222;-83
2024/01/21 02:18:37;;;;;;;18.03;12.27;;;;;;;;;;5019378;28;20330;-80
2024/01/21 02:21:04;;;;;;;24.63;12.57;;;;;;;;;;5022617;28;20310;-82
2024/01/21 02:23:31;;;;;;;20.43;14.03;;;;;;;;;;5001455;28;20227;-81
2024/01/21 02:26:00;;;;;;;44.00;23.63;;;;;;;;;;5004033;28;20218;-81
2024/01/21 02:28:28;;;;;;;79.57;32.20;;;;;;;;;;5016935;28;20491;-81
2024/01/21 02:30:55;;;;;;;92.77;35.73;;;;;;;;;;5011494;28;20210;-80
2024/01/21 02:33:22;;;;;;;89.33;36.50;;;;;;;;;;5021397;28;20226;-81
2024/01/21 02:35:49;;;;;;;72.70;29.70;;;;;;;;;;5003926;28;20689;-84
2024/01/21 02:38:16;;;;;;;62.30;28.37;;;;;;;;;;5012069;28;20208;-81
2024/01/21 02:40:44;;;;;;;50.53;25.07;;;;;;;;;;5024013;28;20206;-81
2024/01/21 02:43:11;;;;;;;26.87;16.57;;;;;;;;;;5006129;28;20224;-82
2024/01/21 02:45:39;;;;;;;28.80;18.00;;;;;;;;;;5021118;28;20652;-80
2024/01/21 02:48:06;;;;;;;30.77;17.93;;;;;;;;;;5027864;28;20375;-82
2024/01/21 02:50:33;;;;;;;25.43;16.43;;;;;;;;;;5018049;28;20738;-82
2024/01/21 02:53:01;;;;;;;22.83;15.97;;;;;;;;;;5002620;28;20298;-82
2024/01/21 02:55:28;;;;;;;26.23;16.20;;;;;;;;;;5003809;28;20223;-81
2024/01/21 02:57:55;;;;;;;28.10;16.90;;;;;;;;;;5021794;28;20200;-82
2024/01/21 03:00:22;;;;;;;29.07;17.70;;;;;;;;;;5020196;28;20217;-83
2024/01/21 03:02:52;;;;;;;29.13;18.43;;;;;;;;;;5023830;28;20307;-84
2024/01/21 03:05:19;;;;;;;26.37;17.43;;;;;;;;;;5023263;28;20269;-82
2024/01/21 03:07:47;;;;;;;23.40;17.33;;;;;;;;;;5024571;28;20207;-81
2024/01/21 03:10:14;;;;;;;24.90;16.87;;;;;;;;;;5003244;28;20206;-81
2024/01/21 03:12:41;;;;;;;24.50;16.00;;;;;;;;;;5019606;28;20230;-83
2024/01/21 03:15:08;;;;;;;24.00;16.33;;;;;;;;;;5028372;28;20229;-82
2024/01/21 03:17:36;;;;;;;23.47;15.97;;;;;;;;;;5018049;28;20208;-82
2024/01/21 03:20:05;;;;;;;22.17;15.33;;;;;;;;;;5025317;28;20201;-83
2024/01/21 03:22:32;;;;;;;22.60;15.13;;;;;;;;;;5018827;28;20233;-81
2024/01/21 03:25:00;;;;;;;20.17;14.23;;;;;;;;;;5009943;28;20351;-82
2024/01/21 03:27:27;;;;;;;21.53;14.80;;;;;;;;;;4999371;28;20752;-82
2024/01/21 03:29:55;;;;;;;21.30;14.23;;;;;;;;;;5016820;28;20206;-80
2024/01/21 03:32:22;;;;;;;22.40;14.50;;;;;;;;;;5010777;28;20253;-83
2024/01/21 03:34:51;;;;;;;22.10;14.60;;;;;;;;;;5009945;28;20234;-85
2024/01/21 03:37:18;;;;;;;20.50;15.23;;;;;;;;;;5005535;28;20217;-81
2024/01/21 03:39:46;;;;;;;22.33;15.47;;;;;;;;;;5025250;28;20216;-83
2024/01/21 03:42:13;;;;;;;24.40;15.40;;;;;;;;;;5039419;28;20514;-86
2024/01/21 03:44:40;;;;;;;22.00;15.77;;;;;;;;;;5027272;28;20233;-82
2024/01/21 03:47:07;;;;;;;24.07;16.13;;;;;;;;;;5047934;28;20199;-78
2024/01/21 03:49:35;;;;;;;24.93;16.27;;;;;;;;;;5050908;28;20263;-82
2024/01/21 03:52:03;;;;;;;21.30;15.00;;;;;;;;;;5035352;28;20287;-83
2024/01/21 03:54:30;;;;;;;25.27;15.80;;;;;;;;;;5022503;28;20268;-83
2024/01/21 03:56:57;;;;;;;22.07;15.50;;;;;;;;;;5033024;28;20230;-82
2024/01/21 03:59:24;;;;;;;28.07;16.30;;;;;;;;;;5013897;28;20279;-78
2024/01/21 04:01:52;;;;;;;24.60;15.77;;;;;;;;;;5033241;28;20209;-82
2024/01/21 04:04:19;;;;;;;24.50;15.10;;;;;;;;;;5034358;28;20229;-82
2024/01/21 04:06:47;;;;;;;23.97;15.63;;;;;;;;;;5016022;28;20483;-80
2024/01/21 04:09:15;;;;;;;20.53;14.90;;;;;;;;;;5011921;28;20209;-83
2024/01/21 04:11:45;;;;;;;22.03;16.27;;;;;;;;;;5029496;28;20263;-80
2024/01/21 04:14:14;;;;;;;26.07;16.27;;;;;;;;;;5030911;28;20722;-82
2024/01/21 04:16:41;;;;;;;20.60;15.73;;;;;;;;;;5033897;28;20257;-82
2024/01/21 04:36:32;;;;;;;22.77;15.63;;;;;;;;;;5023269;28;20726;-82
2024/01/21 04:39:00;;;;;;;26.30;16.17;;;;;;;;;;5034061;28;20206;-82
2024/01/21 04:41:28;;;;;;;24.20;16.07;;;;;;;;;;5007703;28;20222;-79
2024/01/21 04:43:56;;;;;;;22.90;16.53;;;;;;;;;;5025755;28;20225;-82
2024/01/21 04:46:23;;;;;;;22.83;15.37;;;;;;;;;;5031174;28;20652;-82
2024/01/21 04:48:51;;;;;;;24.90;16.27;;;;;;;;;;5020421;28;20219;-81
2024/01/21 04:51:18;;;;;;;22.23;15.97;;;;;;;;;;5026089;28;20213;-82
2024/01/21 04:53:45;;;;;;;23.40;16.13;;;;;;;;;;5025542;28;20236;-81
2024/01/21 04:56:16;;;;;;;23.07;16.07;;;;;;;;;;5029261;28;20252;-80
2024/01/21 04:58:44;;;;;;;25.90;16.77;;;;;;;;;;5034423;28;20658;-82
2024/01/21 05:01:12;;;;;;;26.47;16.07;;;;;;;;;;5029463;28;20204;-83
2024/01/21 05:03:39;;;;;;;22.90;15.73;;;;;;;;;;5027814;28;20218;-83
2024/01/21 05:06:07;;;;;;;22.23;15.07;;;;;;;;;;5013200;28;20562;-80
2024/01/21 05:08:34;;;;;;;22.27;14.50;;;;;;;;;;5027223;28;20220;-82
2024/01/21 05:11:01;;;;;;;18.83;13.20;;;;;;;;;;5026023;28;20223;-80
2024/01/21 05:13:29;;;;;;;21.17;14.23;;;;;;;;;;5021358;28;20642;-81
2024/01/21 05:15:56;;;;;;;21.70;14.07;;;;;;;;;;5026235;28;20768;-78
2024/01/21 05:18:23;;;;;;;19.00;13.70;;;;;;;;;;5022579;28;20928;-81
2024/01/21 05:20:51;;;;;;;19.47;12.80;;;;;;;;;;5022223;28;20220;-80
2024/01/21 05:23:18;;;;;;;20.33;13.40;;;;;;;;;;5022418;28;20243;-82
2024/01/21 05:25:50;;;;;;;20.23;13.00;;;;;;;;;;5030161;28;21010;-81
2024/01/21 05:28:17;;;;;;;16.83;12.47;;;;;;;;;;5024726;28;20732;-83
2024/01/21 05:30:44;;;;;;;24.00;13.87;;;;;;;;;;5030837;28;20205;-81
2024/01/21 05:33:11;;;;;;;17.77;12.00;;;;;;;;;;5026116;28;20940;-82
2024/01/21 05:35:39;;;;;;;18.70;12.67;;;;;;;;;;5008674;28;20591;-84
2024/01/21 05:38:06;;;;;;;17.40;12.00;;;;;;;;;;5037410;28;20546;-81
2024/01/21 05:40:33;;;;;;;18.20;12.37;;;;;;;;;;5006190;28;20720;-80
2024/01/21 05:43:01;;;;;;;19.10;12.07;;;;;;;;;;5014657;28;20845;-79
2024/01/21 05:45:30;;;;;;;17.43;12.30;;;;;;;;;;5017588;28;20223;-81
2024/01/21 05:47:58;;;;;;;20.93;11.80;;;;;;;;;;5025295;28;20212;-80
2024/01/21 05:50:25;;;;;;;17.07;11.63;;;;;;;;;;5031230;28;20232;-78
2024/01/21 05:52:52;;;;;;;17.43;12.37;;;;;;;;;;5018184;28;20245;-83
2024/01/21 05:55:19;;;;;;;18.27;11.77;;;;;;;;;;5022714;28;20296;-82
2024/01/21 05:57:47;;;;;;;16.93;11.17;;;;;;;;;;5027052;28;20234;-83
2024/01/21 06:00:14;;;;;;;17.40;12.40;;;;;;;;;;5007184;28;20675;-82
2024/01/21 06:02:43;;;;;;;15.33;11.43;;;;;;;;;;5006266;28;20233;-82
2024/01/21 06:05:10;;;;;;;16.73;11.87;;;;;;;;;;5012328;28;20210;-80
2024/01/21 06:07:37;;;;;;;15.40;11.40;;;;;;;;;;5033589;28;20215;-81
2024/01/21 06:10:06;;;;;;;16.20;11.73;;;;;;;;;;5028497;28;20701;-79
2024/01/21 06:12:36;;;;;;;16.70;11.40;;;;;;;;;;5027958;28;20227;-82
2024/01/21 06:15:07;;;;;;;17.93;11.53;;;;;;;;;;5024694;28;20237;-82
2024/01/21 06:17:35;;;;;;;16.83;11.90;;;;;;;;;;5024224;28;20238;-82
2024/01/21 06:20:02;;;;;;;16.27;10.87;;;;;;;;;;5033230;28;20203;-80
2024/01/21 06:22:31;;;;;;;24.37;14.53;;;;;;;;;;5015432;28;20257;-83
2024/01/21 06:24:59;;;;;;;21.90;13.63;;;;;;;;;;5018398;28;20576;-82
2024/01/21 06:27:27;;;;;;;20.83;13.23;;;;;;;;;;5026620;28;20218;-81
2024/01/21 06:30:21;;;;;;;20.53;12.37;;;;;;;;;;5009940;28;20251;-81
2024/01/21 06:32:50;;;;;;;24.50;14.20;;;;;;;;;;5024577;28;20230;-84
2024/01/21 06:35:29;;;;;;;21.47;12.50;;;;;;;;;;5017351;28;20283;-82
2024/01/21 06:37:56;;;;;;;18.47;11.60;;;;;;;;;;5016497;28;20205;-82
2024/01/21 06:40:23;;;;;;;15.17;10.47;;;;;;;;;;5034613;28;20739;-80
2024/01/21 06:42:51;;;;;;;17.93;10.83;;;;;;;;;;5037210;28;20247;-83
2024/01/21 06:45:18;;;;;;;17.43;11.87;;;;;;;;;;5029817;28;20285;-80
2024/01/21 06:47:46;;;;;;;14.93;10.37;;;;;;;;;;5024392;28;20206;-85
2024/01/21 06:50:13;;;;;;;13.13;9.77;;;;;;;;;;5031789;28;20268;-78
2024/01/21 06:52:41;;;;;;;13.40;10.13;;;;;;;;;;5023704;28;20223;-79
2024/01/21 06:55:09;;;;;;;14.53;9.50;;;;;;;;;;5027313;28;20215;-80
2024/01/21 06:57:39;;;;;;;13.47;9.00;;;;;;;;;;5027092;28;20210;-82
2024/01/21 07:00:08;;;;;;;11.27;9.60;;;;;;;;;;5027260;28;20201;-80
2024/01/21 07:02:35;;;;;;;12.13;9.57;;;;;;;;;;5025254;28;20230;-82
2024/01/21 07:05:03;;;;;;;13.60;9.30;;;;;;;;;;5014010;28;20195;-82
2024/01/21 07:07:30;;;;;;;12.77;9.37;;;;;;;;;;5022256;28;20257;-83
2024/01/21 07:09:58;;;;;;;11.90;9.23;;;;;;;;;;5036674;28;20211;-84
2024/01/21 07:12:25;;;;;;;14.87;10.60;;;;;;;;;;5031598;28;20222;-82
2024/01/21 07:14:52;;;;;;;17.00;11.00;;;;;;;;;;5031674;28;20255;-81
2024/01/21 07:17:20;;;;;;;17.73;11.70;;;;;;;;;;5006291;28;20234;-83
2024/01/21 07:19:52;;;;;;;14.03;9.23;;;;;;;;;;5022958;28;20339;-81
2024/01/21 07:22:20;;;;;;;14.63;10.63;;;;;;;;;;5028410;28;20384;-82
2024/01/21 07:24:48;;;;;;;15.07;9.97;;;;;;;;;;5022420;28;20284;-82
2024/01/21 07:27:15;;;;;;;14.17;9.87;;;;;;;;;;5021155;28;20604;-80
2024/01/21 07:29:44;;;;;;;22.77;11.37;;;;;;;;;;5024319;28;20206;-82
2024/01/21 07:32:12;;;;;;;25.87;13.07;;;;;;;;;;5022378;28;20260;-81
2024/01/21 07:34:39;;;;;;;20.80;11.17;;;;;;;;;;5006866;28;20207;-84
2024/01/21 07:37:07;;;;;;;12.63;9.20;;;;;;;;;;5011093;28;20403;-82
2024/01/21 07:39:34;;;;;;;10.83;8.03;;;;;;;;;;5004981;28;20215;-82
2024/01/21 07:42:02;;;;;;;14.20;7.93;;;;;;;;;;5021912;28;20227;-81
2024/01/21 07:44:33;;;;;;;12.17;8.37;;;;;;;;;;5008188;28;20203;-83
2024/01/21 07:47:00;;;;;;;12.03;8.83;;;;;;;;;;5022316;28;20203;-82
2024/01/21 07:49:27;;;;;;;11.37;8.20;;;;;;;;;;5025251;28;20294;-82
2024/01/21 07:51:55;;;;;;;11.53;8.33;;;;;;;;;;5020538;28;20215;-79
2024/01/21 07:54:22;;;;;;;11.80;9.20;;;;;;;;;;5022880;28;20230;-82
2024/01/21 07:56:52;;;;;;;11.20;8.97;;;;;;;;;;5021306;28;20230;-82
2024/01/21 07:59:19;;;;;;;12.27;9.17;;;;;;;;;;5007919;28;20207;-83
2024/01/21 08:01:46;;;;;;;13.93;10.10;;;;;;;;;;5007246;28;20203;-81
2024/01/21 08:04:14;;;;;;;15.10;9.20;;;;;;;;;;5026708;28;20222;-80
2024/01/21 08:06:41;;;;;;;15.27;9.30;;;;;;;;;;5008994;28;20211;-79
2024/01/21 08:09:10;;;;;;;13.03;9.13;;;;;;;;;;5001228;28;20214;-77
2024/01/21 08:11:38;;;;;;;12.33;8.13;;;;;;;;;;5013342;28;20215;-80
2024/01/21 08:14:05;;;;;;;12.43;8.67;;;;;;;;;;4999374;28;20231;-82
2024/01/21 08:16:33;;;;;;;12.53;9.63;;;;;;;;;;4991291;28;20230;-82
2024/01/21 08:19:00;;;;;;;14.10;9.10;;;;;;;;;;5017772;28;20206;-79
2024/01/21 08:21:28;;;;;;;10.93;8.30;;;;;;;;;;5013402;28;20303;-83
2024/01/21 08:23:55;;;;;;;12.27;9.17;;;;;;;;;;5013907;28;20223;-82
2024/01/21 08:26:22;;;;;;;10.83;8.07;;;;;;;;;;5011086;28;20199;-81
2024/01/21 08:28:49;;;;;;;11.57;8.50;;;;;;;;;;5014180;28;20338;-76
2024/01/21 08:31:17;;;;;;;10.90;7.77;;;;;;;;;;5015240;28;20211;-82
2024/01/21 08:33:44;;;;;;;12.50;8.20;;;;;;;;;;5010700;28;20725;-78
2024/01/21 08:36:12;;;;;;;9.70;8.00;;;;;;;;;;5013471;28;20823;-80
2024/01/21 08:38:39;;;;;;;11.73;8.70;;;;;;;;;;5023405;28;20203;-80
2024/01/21 08:41:06;;;;;;;11.20;8.27;;;;;;;;;;5017882;28;20216;-81
2024/01/21 08:43:34;;;;;;;15.67;9.97;;;;;;;;;;4994904;28;20232;-80
2024/01/21 08:46:01;;;;;;;11.37;8.60;;;;;;;;;;5024858;28;20208;-83
2024/01/21 08:48:28;;;;;;;13.53;8.73;;;;;;;;;;5010014;28;20256;-81
2024/01/21 08:50:56;;;;;;;13.37;9.20;;;;;;;;;;5026458;28;20704;-81
2024/01/21 08:53:24;;;;;;;15.70;9.80;;;;;;;;;;5021446;28;20313;-77
2024/01/21 08:55:51;;;;;;;13.93;9.93;;;;;;;;;;5012821;28;20255;-81
2024/01/21 08:58:18;;;;;;;15.93;9.60;;;;;;;;;;5018587;28;20674;-79
2024/01/21 09:00:45;;;;;;;16.60;9.53;;;;;;;;;;5010812;28;20209;-81
2024/01/21 09:03:14;;;;;;;10.87;8.80;;;;;;;;;;5014033;28;20322;-82
2024/01/21 09:05:42;;;;;;;12.07;9.33;;;;;;;;;;5014912;28;20677;-81
2024/01/21 09:08:09;;;;;;;15.27;10.93;;;;;;;;;;5009525;28;20207;-78
2024/01/21 09:10:36;;;;;;;17.37;12.87;;;;;;;;;;5016282;28;20209;-81
2024/01/21 09:13:04;;;;;;;19.70;13.87;;;;;;;;;;5020742;28;20230;-79
2024/01/21 09:15:31;;;;;;;19.30;14.10;;;;;;;;;;5000580;28;20215;-84
2024/01/21 09:17:59;;;;;;;15.53;13.70;;;;;;;;;;5027223;28;20231;-86
2024/01/21 09:20:27;;;;;;;11.30;9.50;;;;;;;;;;5011972;28;20201;-81
2024/01/21 09:22:55;;;;;;;11.10;8.67;;;;;;;;;;5014019;28;20235;-85
2024/01/21 09:25:22;;;;;;;11.30;8.27;;;;;;;;;;5035852;28;20231;-84
2024/01/21 09:27:50;;;;;;;9.13;7.33;;;;;;;;;;5034836;28;20517;-86
2024/01/21 09:30:17;;;;;;;10.67;7.80;;;;;;;;;;5031302;28;20209;-85
2024/01/21 09:32:44;;;;;;;11.63;8.73;;;;;;;;;;5035727;28;20229;-82
2024/01/21 09:35:12;;;;;;;12.67;8.50;;;;;;;;;;5031216;28;20221;-81
2024/01/21 09:37:41;;;;;;;12.73;9.43;;;;;;;;;;5016778;28;20232;-84
2024/01/21 09:40:09;;;;;;;10.83;7.57;;;;;;;;;;5020072;28;20218;-80
2024/01/21 09:42:36;;;;;;;10.97;8.97;;;;;;;;;;5017712;28;20779;-84
2024/01/21 09:45:03;;;;;;;11.93;8.90;;;;;;;;;;5031857;28;20241;-83
2024/01/21 09:47:31;;;;;;;11.60;8.90;;;;;;;;;;5035553;28;20212;-83
2024/01/21 09:49:58;;;;;;;10.13;7.87;;;;;;;;;;5035030;28;20584;-82
2024/01/21 09:52:25;;;;;;;17.23;11.70;;;;;;;;;;5025811;28;20717;-83
2024/01/21 09:54:53;;;;;;;9.87;7.90;;;;;;;;;;5022797;28;20233;-85
2024/01/21 09:57:21;;;;;;;9.90;8.07;;;;;;;;;;5016085;28;20226;-85
2024/01/21 09:59:51;;;;;;;10.60;9.03;;;;;;;;;;5026312;28;20241;-81
2024/01/21 10:02:18;;;;;;;14.70;8.90;;;;;;;;;;5028779;28;20207;-83
2024/01/21 10:04:46;;;;;;;13.60;8.93;;;;;;;;;;5024710;28;20207;-82
2024/01/21 10:07:13;;;;;;;10.30;8.23;;;;;;;;;;5029769;28;20237;-83
2024/01/21 10:09:41;;;;;;;10.57;8.20;;;;;;;;;;5010741;28;20254;-81
2024/01/21 10:12:09;;;;;;;13.27;8.93;;;;;;;;;;5033927;28;20206;-81
2024/01/21 10:14:37;;;;;;;10.80;8.63;;;;;;;;;;5024843;28;21189;-78
2024/01/21 10:17:04;;;;;;;9.90;8.37;;;;;;;;;;5013337;28;20712;-81
2024/01/21 10:19:33;;;;;;;14.77;9.43;;;;;;;;;;5017877;28;20206;-83
2024/01/21 10:22:10;;;;;;;13.93;8.77;;;;;;;;;;5018231;28;20257;-83
2024/01/21 10:24:38;;;;;;;13.40;9.30;;;;;;;;;;5020283;28;20214;-84
2024/01/21 10:27:09;;;;;;;11.70;8.27;;;;;;;;;;5022362;28;20207;-81
2024/01/21 10:29:41;;;;;;;10.43;8.73;;;;;;;;;;5009456;28;20653;-79
2024/01/21 10:32:11;;;;;;;11.30;8.70;;;;;;;;;;5024334;28;20242;-81
2024/01/21 10:34:45;;;;;;;12.27;9.50;;;;;;;;;;5030392;28;20187;-79
2024/01/21 10:37:17;;;;;;;14.83;9.37;;;;;;;;;;5045326;28;20231;-77
2024/01/21 10:39:46;;;;;;;11.63;8.37;;;;;;;;;;5028813;28;20244;-77
2024/01/21 10:42:14;;;;;;;9.80;7.73;;;;;;;;;;5043664;28;20194;-78
2024/01/21 10:44:43;;;;;;;9.77;7.70;;;;;;;;;;5030546;28;20195;-80
2024/01/21 10:47:12;;;;;;;12.43;8.50;;;;;;;;;;5026118;28;20308;-79
2024/01/21 10:49:40;;;;;;;10.63;7.50;;;;;;;;;;5028761;28;20277;-80
2024/01/21 10:52:10;;;;;;;9.70;7.83;;;;;;;;;;5037265;28;20211;-80
2024/01/21 10:54:38;;;;;;;12.27;8.33;;;;;;;;;;5016680;28;20203;-81
2024/01/21 10:57:06;;;;;;;10.07;7.77;;;;;;;;;;5017326;28;20285;-80
2024/01/21 10:59:36;;;;;;;9.03;7.70;;;;;;;;;;5016944;28;20704;-81
2024/01/21 11:02:03;;;;;;;9.10;7.53;;;;;;;;;;5000388;28;20228;-80
2024/01/21 11:04:30;;;;;;;10.30;7.97;;;;;;;;;;5023985;28;20638;-82
2024/01/21 11:07:01;;;;;;;11.10;8.03;;;;;;;;;;5016732;28;20211;-82
2024/01/21 11:09:32;;;;;;;8.70;7.37;;;;;;;;;;5004866;28;20203;-83
2024/01/21 11:12:03;;;;;;;10.73;8.03;;;;;;;;;;5009936;28;20217;-85
2024/01/21 11:14:31;;;;;;;11.33;8.20;;;;;;;;;;5005392;28;21039;-82
2024/01/21 11:17:00;;;;;;;10.67;7.83;;;;;;;;;;5015649;28;20221;-86
2024/01/21 11:19:37;;;;;;;10.53;7.20;;;;;;;;;;5013670;28;20202;-82
2024/01/21 11:22:05;;;;;;;10.77;7.73;;;;;;;;;;5029438;28;20472;-83
2024/01/21 11:24:32;;;;;;;10.30;7.77;;;;;;;;;;4998305;28;22428;-82
2024/01/21 11:27:01;;;;;;;10.43;8.23;;;;;;;;;;5017766;28;20210;-82
2024/01/21 11:29:29;;;;;;;10.70;8.00;;;;;;;;;;5001867;28;20203;-82
2024/01/21 11:31:57;;;;;;;10.03;7.93;;;;;;;;;;5011525;28;20265;-78
2024/01/21 11:34:25;;;;;;;9.80;7.60;;;;;;;;;;5010207;28;20227;-82
2024/01/21 11:36:52;;;;;;;10.20;7.67;;;;;;;;;;5013138;28;20230;-82
2024/01/21 11:39:24;;;;;;;11.47;7.53;;;;;;;;;;4994202;28;20195;-82
2024/01/21 11:41:52;;;;;;;11.70;8.33;;;;;;;;;;5014024;28;20203;-85
2024/01/21 11:44:22;;;;;;;10.90;7.87;;;;;;;;;;5021555;28;20227;-84
2024/01/21 11:46:57;;;;;;;9.43;7.77;;;;;;;;;;5020300;28;20205;-83
2024/01/21 11:49:24;;;;;;;10.80;8.73;;;;;;;;;;4996214;28;20217;-83
2024/01/21 11:51:52;;;;;;;10.33;7.47;;;;;;;;;;5016038;28;20301;-84
2024/01/21 11:54:21;;;;;;;9.93;8.03;;;;;;;;;;5014691;28;20331;-81
2024/01/21 11:56:49;;;;;;;8.80;7.47;;;;;;;;;;5018108;28;20289;-81
2024/01/21 11:59:17;;;;;;;13.47;8.97;;;;;;;;;;5004046;28;20218;-82
2024/01/21 12:01:45;;;;;;;12.93;10.10;;;;;;;;;;5030736;28;20238;-79
2024/01/21 12:04:15;;;;;;;9.67;8.30;;;;;;;;;;5028075;28;20321;-82
2024/01/21 12:06:46;;;;;;;9.33;7.80;;;;;;;;;;5009942;28;20209;-81
2024/01/21 12:09:14;;;;;;;9.57;7.50;;;;;;;;;;5011708;28;20602;-82
2024/01/21 12:11:42;;;;;;;10.50;7.43;;;;;;;;;;5023052;28;20215;-81
2024/01/21 12:14:11;;;;;;;10.00;8.13;;;;;;;;;;5021515;28;20226;-80
2024/01/21 12:16:39;;;;;;;11.17;8.07;;;;;;;;;;5022678;28;20724;-82
2024/01/21 12:19:07;;;;;;;10.33;8.20;;;;;;;;;;5029321;28;20217;-84
2024/01/21 12:21:34;;;;;;;10.27;8.13;;;;;;;;;;5023345;28;20279;-82
2024/01/21 12:24:02;;;;;;;10.77;8.07;;;;;;;;;;5001498;28;20229;-81
2024/01/21 12:26:29;;;;;;;10.43;8.23;;;;;;;;;;5022518;28;21626;-80
2024/01/21 12:28:57;;;;;;;9.13;8.10;;;;;;;;;;5007792;28;20207;-79
2024/01/21 12:31:28;;;;;;;9.47;7.87;;;;;;;;;;5022949;28;20207;-78
2024/01/21 12:33:55;;;;;;;9.90;8.30;;;;;;;;;;5030066;28;20277;-85
2024/01/21 12:36:23;;;;;;;10.07;7.67;;;;;;;;;;5022055;28;20203;-79
2024/01/21 12:38:51;;;;;;;8.77;7.87;;;;;;;;;;5012887;28;20226;-84
2024/01/21 12:41:18;;;;;;;9.70;8.30;;;;;;;;;;5022921;28;20199;-83
2024/01/21 12:43:47;;;;;;;10.87;8.47;;;;;;;;;;5038683;28;20783;-76
2024/01/21 12:46:14;;;;;;;10.50;8.33;;;;;;;;;;5046646;28;20190;-78
2024/01/21 12:48:41;;;;;;;11.43;8.93;;;;;;;;;;5048311;28;20218;-81
2024/01/21 12:51:09;;;;;;;11.17;8.77;;;;;;;;;;5027666;28;20345;-79
2024/01/21 12:53:36;;;;;;;9.40;7.70;;;;;;;;;;5019218;28;20294;-83
2024/01/21 12:56:03;;;;;;;9.00;7.20;;;;;;;;;;5005915;28;20226;-82
2024/01/21 12:58:31;;;;;;;10.43;7.63;;;;;;;;;;5024285;28;20280;-79
2024/01/21 13:00:58;;;;;;;9.23;7.23;;;;;;;;;;5008913;28;20288;-82
2024/01/21 13:03:27;;;;;;;9.43;7.57;;;;;;;;;;5026963;28;20230;-81
2024/01/21 13:05:54;;;;;;;8.03;7.13;;;;;;;;;;5003257;28;20286;-83
2024/01/21 13:08:23;;;;;;;8.43;7.53;;;;;;;;;;5028732;28;20214;-82
2024/01/21 13:10:50;;;;;;;9.33;8.00;;;;;;;;;;5026577;28;20274;-85
2024/01/21 13:13:17;;;;;;;9.83;7.90;;;;;;;;;;5023314;28;20269;-83
2024/01/21 13:15:46;;;;;;;9.20;8.10;;;;;;;;;;5025268;28;20275;-83
2024/01/21 13:18:13;;;;;;;9.53;7.47;;;;;;;;;;5027973;28;20237;-83
2024/01/21 13:20:41;;;;;;;9.63;7.37;;;;;;;;;;5026757;28;20210;-83
2024/01/21 13:23:08;;;;;;;8.67;7.03;;;;;;;;;;5021531;28;20288;-82
2024/01/21 13:25:36;;;;;;;8.13;7.03;;;;;;;;;;5023512;28;20260;-84
2024/01/21 13:28:13;;;;;;;9.60;7.70;;;;;;;;;;5028962;28;20295;-83
2024/01/21 13:30:45;;;;;;;8.57;7.57;;;;;;;;;;5028240;28;20618;-85
2024/01/21 13:33:14;;;;;;;7.43;6.20;;;;;;;;;;5025135;28;20246;-84
2024/01/21 13:35:42;;;;;;;8.63;6.83;;;;;;;;;;5003102;28;20211;-85
2024/01/21 13:38:13;;;;;;;9.17;6.93;;;;;;;;;;5023408;28;20229;-80
2024/01/21 13:40:41;;;;;;;8.80;6.53;;;;;;;;;;5014861;28;20198;-83
2024/01/21 13:43:08;;;;;;;10.90;6.77;;;;;;;;;;5009895;28;20250;-82
2024/01/21 13:45:36;;;;;;;10.30;7.63;;;;;;;;;;5034288;28;20203;-84
2024/01/21 13:48:06;;;;;;;9.03;7.27;;;;;;;;;;5009704;28;20207;-85
2024/01/21 13:50:34;;;;;;;8.50;6.37;;;;;;;;;;5023170;28;20384;-84
2024/01/21 13:53:02;;;;;;;8.40;6.87;;;;;;;;;;5024985;28;20253;-82
2024/01/21 13:55:30;;;;;;;7.33;6.10;;;;;;;;;;5001259;28;20225;-82
2024/01/21 13:57:57;;;;;;;12.47;9.63;;;;;;;;;;5008764;28;20716;-83
2024/01/21 14:00:25;;;;;;;9.50;6.17;;;;;;;;;;5038272;28;20207;-83
2024/01/21 14:02:54;;;;;;;7.40;6.60;;;;;;;;;;5022882;28;20253;-81
2024/01/21 14:05:23;;;;;;;7.83;6.63;;;;;;;;;;5010957;28;20325;-83
2024/01/21 14:07:50;;;;;;;8.53;6.10;;;;;;;;;;5030301;28;20230;-80
2024/01/21 14:10:18;;;;;;;9.33;6.50;;;;;;;;;;5032918;28;20219;-82
2024/01/21 14:12:45;;;;;;;8.83;6.57;;;;;;;;;;5009151;28;20867;-81
2024/01/21 14:15:14;;;;;;;19.37;12.03;;;;;;;;;;5019403;28;20215;-82
2024/01/21 14:17:42;;;;;;;13.00;8.83;;;;;;;;;;5031781;28;20905;-84
2024/01/21 14:20:09;;;;;;;12.13;7.20;;;;;;;;;;5028832;28;20238;-80
2024/01/21 14:22:37;;;;;;;9.33;6.93;;;;;;;;;;5029935;28;20318;-83
2024/01/21 14:25:15;;;;;;;8.00;6.83;;;;;;;;;;5032099;28;20240;-85
2024/01/21 14:27:43;;;;;;;9.90;7.63;;;;;;;;;;5028723;28;20202;-81
2024/01/21 14:30:16;;;;;;;9.60;7.30;;;;;;;;;;5032957;28;20209;-80
2024/01/21 14:32:44;;;;;;;8.07;6.73;;;;;;;;;;5031188;28;20240;-80
2024/01/21 14:35:11;;;;;;;7.90;7.10;;;;;;;;;;5030787;28;20210;-82
2024/01/21 14:37:38;;;;;;;9.07;7.97;;;;;;;;;;5010304;28;20223;-82
2024/01/21 14:40:06;;;;;;;10.13;7.80;;;;;;;;;;5017711;28;20274;-83
2024/01/21 14:42:34;;;;;;;11.33;7.63;;;;;;;;;;5030806;28;20290;-79
2024/01/21 14:45:01;;;;;;;8.77;7.37;;;;;;;;;;5029672;28;20210;-85
2024/01/21 14:47:28;;;;;;;10.03;7.47;;;;;;;;;;5025124;28;20276;-84